x

Cape San Martin - 55nm West Nw Of Morro Bay, Ca (46028) Wave Buoy

11:50pm - Sun 23rd Nov 2014 All times are PST. -8 hours from GMT.

  • Sig Wave height 9.2ft
  • Swell Direction
  • Peak Period 14s
  • Average Period 7s
  • Wind
    20mph, 25mph gusts
  • Sea Temp 60°f
  • Air Temp 60°f
  • Sea Pressure 1024.4mb
  • Cape San Martin - 55nm West Nw Of Morro Bay, Ca
  • Cape San Martin - 55nm West Nw Of Morro Bay, Ca

More Historic Weather Station data

Upgrade to MSW Pro to gain access to the past 30 days of data for over 8000 Wavebouys and Weather Stations around the globe.

Join Pro

Comparision Forecast

View Surf forecast
   
Sun 11/23 11:50pm 9ft 14s 7s 20 25 mph 1024.4mb 60f 60f
10:50pm 9.5ft 14s 8s 20 25 mph 1024.4mb 60f 60f
9:50pm 10ft 13s 8s 18 22 mph 1024.4mb 60f 60f
8:50pm 9.5ft 14s 8s 18 20 mph 1024.4mb 60f 60f
7:50pm  -   -   -  18 20 mph 1024.2mb 60f 60f
6:50pm 10.5ft 12s 9s 16 18 mph 1023.9mb 60f 60f
5:50pm 9.5ft 14s 8s 7 9 mph 1023.6mb 60f 59f
4:50pm 10.5ft 14s 9s 4 7 mph 1023.2mb 60f 59f
3:50pm 11ft 14s 9s 4 7 mph 1023.4mb 60f 60f
2:50pm 10.5ft 14s 9s 4 7 mph 1023.2mb 60f 60f
1:50pm  -   -   -   -  4 mph 1023.2mb 60f 61f
12:50pm 10.5ft 13s 8s 7
mph
1023.1mb 60f 60f
11:50am 10.5ft 15s 8s 18 20 mph 1023.8mb 60f 61f
10:50am 12ft 15s 8s 20 25 mph 1023.9mb 60f 61f
9:50am 11ft 15s 8s 20 25 mph 1023.6mb 60f 60f
8:50am 11ft 15s 8s 27 31 mph 1023.1mb 60f 60f
7:50am 12ft 15s 8s 25 29 mph 1021.9mb 60f 60f
6:50am 10.5ft 15s 7s 27 29 mph 1022mb 60f 60f
5:50am 11.5ft 15s 8s 27 34 mph 1021.4mb 60f 60f
4:50am  -   -   -  27 31 mph 1021.1mb 60f 60f
3:50am  -   -   -  25 29 mph 1020.9mb 60f 60f
2:50am 12ft 13s 8s 25 29 mph 1020.7mb 61f 60f
1:50am  -   -   -  25 31 mph 1020.9mb 61f 60f
Sat 11/22 11:50pm 11ft 12s 7s 27 34 mph 1020.7mb 61f 60f
10:50pm  -   -   -  27 34 mph 1021mb 61f 60f
9:50pm  -   -   -  27 31 mph 1020.9mb 61f 61f
8:50pm 8ft 11s 6s 25 31 mph 1020.5mb 61f 61f
7:50pm 8.5ft 11s 6s 25 29 mph 1020.5mb 61f 61f
6:50pm  -   -   -  22 29 mph 1020mb 62f 61f
5:50pm 8ft 13s 7s 25 31 mph 1019.6mb 62f 61f
4:50pm 7.5ft 10s 7s 22 27 mph 1019.4mb 62f 62f
3:50pm 7ft 10s 7s 20 25 mph 1019.7mb 62f 62f
2:50pm 7ft 11s 8s 18 22 mph 1019.4mb 62f 62f
1:50pm 6.5ft 11s 8s 16 20 mph 1019.7mb 62f 62f
12:50pm 7ft 10s 8s 11 13 mph 1020mb 62f 62f
11:50am 7ft 11s 8s 11 13 mph 1020.7mb 62f 62f
10:50am 6.5ft 11s 9s 9 11 mph 1021.4mb 62f 62f
9:50am 7ft 11s 9s 9 11 mph 1021.3mb 62f 62f
8:50am 7.5ft 12s 9s 7
mph
1020.8mb 62f 62f
7:50am 8ft 12s 9s 4 7 mph 1021mb 62f 61f
6:50am 7ft 11s 9s 2 4 mph 1020.4mb 62f 60f
5:50am 8ft 12s 9s 2 4 mph 1020.1mb 62f 60f
4:50am 7ft 12s 9s 2 4 mph 1020mb 62f 60f
3:50am 7.5ft 12s 9s 4 7 mph 1020.2mb 62f 60f
2:50am 8ft 13s 9s 7 9 mph 1020.7mb 62f 60f
1:50am 9ft 13s 9s 11 16 mph 1020.8mb 62f 61f
12:50am  -   -   -  9 13 mph 1020.5mb 62f 61f
Fri 11/21 11:50pm 9ft 13s 9s 11 13 mph 1020.5mb 62f 61f
10:50pm 10ft 13s 9s 13 16 mph 1020.4mb 62f 61f
9:50pm  -   -   -  13 18 mph 1020.3mb 62f 61f
8:50pm  -   -   -  16 20 mph 1020mb 62f 60f
7:50pm  -   -   -  13
mph
1019.6mb - 60f
6:50pm 8.5ft 12s 9s 11 16 mph 1019.1mb 62f 60f
5:50pm  -   -   -  16 18 mph 1019mb 62f 60f
4:50pm 8.5ft 11s 8s 13 18 mph 1018.9mb 62f 60f
3:50pm 8.5ft 11s 8s 16 18 mph 1018.2mb 62f 60f
2:50pm 8ft 11s 8s 16 18 mph 1017.9mb 62f 60f
1:50pm 7ft 10s 8s 16 18 mph 1017.9mb 62f 60f
12:50pm  -   -   -  11 13 mph 1017.7mb 62f 60f
11:50am  -   -   -  11 13 mph 1018.3mb 62f 60f
10:50am 7ft 10s 8s 11 16 mph 1018.8mb 62f 60f
9:50am 7ft 10s 8s 11 13 mph 1018.7mb 62f 60f
8:50am 7ft 15s 8s 11 13 mph 1018.3mb 61f 60f
7:50am 7ft 11s 8s 11 13 mph 1018mb 61f 60f
6:50am 6.5ft 10s 8s 11 13 mph 1017.5mb 61f 60f
5:50am 7ft 10s 8s 13 16 mph 1017mb 61f 60f
4:50am 6.5ft 9s 8s 11 13 mph 1016.6mb 61f 60f
3:50am 6.5ft 11s 8s 11 13 mph 1016.5mb 61f 60f
2:50am 6.5ft 11s 8s 7 9 mph 1016.3mb 61f 59f
1:50am  -   -   -  9 11 mph 1016.5mb 61f 60f
12:50am 7.5ft 11s 8s 4 7 mph 1016.5mb 61f 60f
Thu 11/20 11:50pm 7ft 10s 8s 2 4 mph 1016.7mb 61f 59f
10:50pm 7ft 11s 9s 2 4 mph 1016.9mb 61f 59f
9:50pm 6ft 11s 8s  -  4 mph 1016.8mb 61f 60f
8:50pm 6.5ft 11s 8s 4 7 mph 1016.3mb 61f 60f
7:50pm 7ft 11s 9s 4 7 mph 1016.1mb 61f 59f
6:50pm 8ft 10s 9s 7 9 mph 1016mb 62f 59f
5:50pm 8ft 11s 9s 11 13 mph 1016.4mb 62f 59f
4:50pm 8.5ft 11s 9s 11 13 mph 1016.4mb 62f 60f
3:50pm 10ft 11s 9s 7 11 mph 1016.8mb 62f 60f
2:50pm 9ft 11s 8s 4 7 mph 1017.1mb 62f 60f
1:50pm 8.5ft 11s 8s 2 4 mph 1017.2mb 62f 60f
12:50pm 9ft 11s 9s 4 7 mph 1017.8mb 62f 60f
11:50am 9ft 11s 8s 4 7 mph 1018.9mb 62f 60f
10:50am 9.5ft 11s 9s 7 9 mph 1019.7mb 62f 60f
9:50am 10ft 11s 9s 2 4 mph 1019.7mb 61f 59f
8:50am 9ft 12s 9s 2 4 mph 1019.4mb 61f 58f